createdAt,value
2023-04-20T00:12:41.290Z,72.00
2023-04-20T00:24:55.692Z,72.53
2023-04-20T00:27:54.044Z,72.43
2023-04-20T00:30:29.135Z,72.34
2023-04-20T00:33:03.299Z,72.35
2023-04-20T00:35:39.139Z,72.42
2023-04-20T00:38:18.055Z,72.51
2023-04-20T00:40:57.169Z,72.50
2023-04-20T00:43:31.542Z,72.67
2023-04-20T00:46:06.906Z,72.68
2023-04-20T00:48:43.755Z,72.74
2023-04-20T00:51:14.492Z,72.71
2023-04-20T00:53:54.393Z,72.75
2023-04-20T00:56:36.057Z,72.87
2023-04-20T00:59:15.870Z,72.94
2023-04-20T01:01:53.334Z,72.92
2023-04-20T01:04:31.187Z,73.13
2023-04-20T01:07:12.902Z,73.25
2023-04-20T01:09:49.506Z,73.25
2023-04-20T01:12:30.080Z,73.25
2023-04-20T01:15:03.213Z,73.22
2023-04-20T01:20:35.418Z,73.18
2023-04-20T01:23:15.012Z,73.17
2023-04-20T01:26:01.539Z,73.33
2023-04-20T01:28:50.954Z,73.35
2023-04-20T01:31:27.137Z,73.44
2023-04-20T01:34:04.474Z,73.61
2023-04-20T01:36:41.079Z,73.74
2023-04-20T01:39:35.623Z,73.78
2023-04-20T01:42:09.005Z,73.74
2023-04-20T01:44:44.825Z,73.83
2023-04-20T01:47:32.267Z,73.67
2023-04-20T01:50:10.685Z,73.66
2023-04-20T01:52:47.342Z,73.75
2023-04-20T01:55:23.666Z,73.73
2023-04-20T01:57:59.602Z,73.68
2023-04-20T02:00:34.589Z,73.62
2023-04-20T02:03:09.813Z,73.63
2023-04-20T02:05:45.333Z,73.57
2023-04-20T02:08:23.243Z,73.68
2023-04-20T02:10:56.423Z,73.69
2023-04-20T02:13:34.427Z,73.71
2023-04-20T02:16:05.762Z,73.71
2023-04-20T02:18:35.989Z,73.72
2023-04-20T02:21:12.269Z,73.70
2023-04-20T02:23:58.979Z,73.78
2023-04-20T02:26:57.671Z,73.90
2023-04-20T02:29:34.008Z,73.91
2023-04-20T02:32:19.290Z,73.97
2023-04-20T02:35:00.565Z,73.97
2023-04-20T02:37:37.362Z,73.93
2023-04-20T02:40:19.348Z,73.86
2023-04-20T02:42:50.981Z,73.93
2023-04-20T02:45:21.006Z,73.83
2023-04-20T02:47:54.017Z,73.72
2023-04-20T02:50:27.600Z,73.75
2023-04-20T02:53:10.166Z,74.01
2023-04-20T02:55:45.003Z,74.24
2023-04-20T02:58:27.125Z,74.46
2023-04-20T03:01:19.483Z,74.44
2023-04-20T03:04:01.110Z,74.51
2023-04-20T03:06:48.270Z,74.48
2023-04-20T03:09:28.384Z,74.34
2023-04-20T03:12:25.850Z,74.51
2023-04-20T03:15:24.392Z,74.60
2023-04-20T03:18:14.634Z,74.73
2023-04-20T03:20:58.200Z,74.95
2023-04-20T03:23:51.850Z,74.83
2023-04-20T03:26:33.632Z,74.91
2023-04-20T03:29:19.477Z,75.03
2023-04-20T03:31:50.474Z,75.06
2023-04-20T03:34:42.933Z,75.06
2023-04-20T03:37:28.708Z,75.03
2023-04-20T03:40:10.754Z,75.07
2023-04-20T03:42:46.401Z,75.04
2023-04-20T03:45:18.223Z,75.06
2023-04-20T03:47:54.372Z,75.03
2023-04-20T03:50:25.245Z,74.99
2023-04-20T03:53:04.646Z,75.13
2023-04-20T03:55:36.568Z,75.17
2023-04-20T03:58:13.418Z,75.18
2023-04-20T04:01:13.798Z,75.50
2023-04-20T04:03:55.571Z,75.87
2023-04-20T04:06:57.313Z,75.84
2023-04-20T04:09:35.718Z,75.87
2023-04-20T04:12:11.933Z,75.84
2023-04-20T04:14:47.226Z,75.79
2023-04-20T04:17:24.820Z,75.67
2023-04-20T04:20:02.990Z,75.77
2023-04-20T04:22:38.713Z,75.64
2023-04-20T04:25:30.076Z,75.45
2023-04-20T04:28:08.925Z,75.58
2023-04-20T04:30:56.141Z,75.71
2023-04-20T04:33:32.013Z,75.93
2023-04-20T04:36:09.668Z,75.99
2023-04-20T04:38:53.293Z,75.84
2023-04-20T04:41:32.483Z,75.84
2023-04-20T04:44:16.153Z,75.84
2023-04-20T04:46:55.614Z,75.77
2023-04-20T04:49:30.225Z,75.80
2023-04-20T04:52:12.320Z,75.90
2023-04-20T04:54:51.480Z,76.00
2023-04-20T04:57:24.652Z,75.98
2023-04-20T05:00:12.946Z,75.81
2023-04-20T05:02:51.671Z,75.79
2023-04-20T05:05:28.275Z,75.75
2023-04-20T05:07:58.789Z,75.64
2023-04-20T05:10:32.158Z,75.63
2023-04-20T05:13:04.012Z,75.47
2023-04-20T05:15:35.718Z,75.29
2023-04-20T05:18:11.428Z,75.05
2023-04-20T05:20:44.284Z,74.85
2023-04-20T05:23:18.028Z,74.93
2023-04-20T05:25:59.654Z,74.93
2023-04-20T05:28:42.128Z,75.03
2023-04-20T05:31:29.906Z,74.79
2023-04-20T05:34:24.543Z,74.79
2023-04-20T05:37:12.759Z,74.81
2023-04-20T05:39:48.249Z,74.78
2023-04-20T05:42:24.405Z,74.57
2023-04-20T05:45:11.585Z,74.29
2023-04-20T05:51:06.789Z,73.39
2023-04-20T05:53:48.251Z,73.26
2023-04-20T05:56:24.923Z,72.87
2023-04-20T05:59:23.261Z,72.39
2023-04-20T06:01:59.463Z,71.94
2023-04-20T06:04:34.306Z,71.39
2023-04-20T06:07:08.346Z,70.96
2023-04-20T06:09:41.428Z,70.66
2023-04-20T06:12:14.297Z,70.44
2023-04-20T06:14:44.665Z,69.83
2023-04-20T06:17:14.942Z,69.04
2023-04-20T06:19:50.221Z,67.75
2023-04-20T06:22:20.779Z,66.60
2023-04-20T06:25:01.647Z,65.11
2023-04-20T06:27:40.508Z,64.03
2023-04-20T06:30:13.979Z,64.16
2023-04-20T06:32:44.433Z,63.60
2023-04-20T06:35:21.012Z,62.66
2023-04-20T06:37:54.908Z,62.29
2023-04-20T06:40:30.884Z,61.35
2023-04-20T06:43:25.109Z,59.66
2023-04-20T06:46:05.858Z,59.06
2023-04-20T06:48:44.054Z,58.15
2023-04-20T06:51:22.030Z,57.43
2023-04-20T06:53:57.149Z,56.03
2023-04-20T06:56:35.860Z,55.39
2023-04-20T07:02:01.740Z,53.68
2023-04-20T07:04:36.733Z,52.62
2023-04-20T07:07:06.552Z,52.37
2023-04-20T07:09:35.778Z,51.41
2023-04-20T07:12:05.257Z,50.83
2023-04-20T07:14:34.481Z,51.15
2023-04-20T07:17:03.611Z,50.64
2023-04-20T07:19:41.902Z,49.87
2023-04-20T07:22:15.039Z,49.75
2023-04-20T07:24:47.285Z,49.63
2023-04-20T07:27:17.872Z,48.91
2023-04-20T07:29:50.090Z,48.62
2023-04-20T07:32:26.964Z,48.95
2023-04-20T07:35:06.410Z,48.65
2023-04-20T07:37:36.975Z,48.27
2023-04-20T07:40:27.468Z,47.63
2023-04-20T07:43:10.261Z,46.48
2023-04-20T07:45:42.259Z,45.21
2023-04-20T07:48:17.485Z,45.51
2023-04-20T07:50:51.407Z,45.48
2023-04-20T07:53:48.593Z,45.03
2023-04-20T07:56:36.164Z,44.07
2023-04-20T07:59:22.385Z,42.89
2023-04-20T08:02:02.978Z,42.90
2023-04-20T08:04:39.756Z,43.35
2023-04-20T08:07:23.200Z,44.38
2023-04-20T08:10:05.467Z,45.53
2023-04-20T08:12:42.484Z,45.92
2023-04-20T08:15:32.666Z,46.32
2023-04-20T08:18:21.334Z,46.18
2023-04-20T08:21:03.518Z,46.37
2023-04-20T08:23:57.975Z,46.63
2023-04-20T08:26:40.996Z,47.56
2023-04-20T08:29:27.096Z,47.51
2023-04-20T08:31:57.532Z,47.60
2023-04-20T08:34:30.948Z,48.20
2023-04-20T08:37:07.252Z,48.27
2023-04-20T08:39:41.099Z,48.00
2023-04-20T08:42:20.667Z,47.91
2023-04-20T08:45:03.465Z,48.16
2023-04-20T08:47:44.616Z,48.80
2023-04-20T08:50:20.765Z,49.11
2023-04-20T08:52:56.068Z,49.72
2023-04-20T08:55:30.442Z,50.20
2023-04-20T08:58:29.267Z,50.74
2023-04-20T09:01:15.460Z,51.36
2023-04-20T09:03:54.754Z,51.66
2023-04-20T09:06:37.715Z,51.66
2023-04-20T09:09:11.861Z,52.00
2023-04-20T09:12:03.033Z,52.39
2023-04-20T09:14:48.300Z,52.45
2023-04-20T09:17:40.483Z,52.82
2023-04-20T09:20:45.418Z,52.71
2023-04-20T09:23:41.777Z,52.81
2023-04-20T09:34:53.304Z,53.14
2023-04-20T09:41:08.844Z,53.64
2023-04-20T09:43:42.402Z,53.84
2023-04-20T09:46:15.128Z,53.97
2023-04-20T09:48:48.944Z,54.08
2023-04-20T09:51:35.739Z,54.06
2023-04-20T09:54:20.992Z,53.98
2023-04-20T09:57:06.444Z,54.18
2023-04-20T10:00:11.611Z,54.62
2023-04-20T10:02:45.522Z,54.96
2023-04-20T10:05:41.412Z,54.95
2023-04-20T10:08:12.142Z,54.86
2023-04-20T10:10:52.573Z,54.73
2023-04-20T10:13:38.837Z,54.69
2023-04-20T10:16:29.292Z,54.80
2023-04-20T10:19:09.188Z,54.68
2023-04-20T10:21:55.060Z,54.60
2023-04-20T10:24:37.008Z,54.87
2023-04-20T10:27:29.221Z,54.44
2023-04-20T10:30:20.156Z,54.44
2023-04-20T10:33:14.404Z,54.70
2023-04-20T10:35:59.733Z,54.58
2023-04-20T10:38:39.880Z,54.29
2023-04-20T10:42:01.909Z,53.87
2023-04-20T10:44:59.793Z,53.16
2023-04-20T10:47:41.248Z,52.93
2023-04-20T10:50:20.238Z,52.62
2023-04-20T10:53:00.684Z,52.26
2023-04-20T10:55:34.922Z,51.77
2023-04-20T10:58:08.942Z,51.08
2023-04-20T11:00:39.827Z,50.62
2023-04-20T11:03:16.033Z,50.52
2023-04-20T11:06:04.836Z,50.45
2023-04-20T11:08:46.163Z,50.47
2023-04-20T11:11:31.794Z,50.63
2023-04-20T11:14:20.506Z,50.81
2023-04-20T11:17:02.406Z,50.78
2023-04-20T11:19:46.619Z,50.79
2023-04-20T11:22:26.196Z,51.00
2023-04-20T11:25:21.418Z,51.23
2023-04-20T11:28:11.944Z,50.97
2023-04-20T11:30:43.375Z,50.21
2023-04-20T11:33:41.103Z,49.83
2023-04-20T11:36:30.236Z,49.22
2023-04-20T11:39:18.886Z,49.04
2023-04-20T11:41:54.322Z,48.72
2023-04-20T11:44:33.041Z,48.66
2023-04-20T11:48:09.420Z,48.03
2023-04-20T11:50:45.263Z,48.12
2023-04-20T11:53:24.063Z,47.30
2023-04-20T11:56:11.086Z,46.93
2023-04-20T11:58:59.909Z,47.02
2023-04-20T12:01:36.814Z,46.88
2023-04-20T12:04:22.603Z,46.91
2023-04-20T12:07:16.218Z,46.37
2023-04-20T12:09:47.742Z,45.85
2023-04-20T12:12:29.668Z,46.10
2023-04-20T12:15:24.814Z,46.22
2023-04-20T12:18:15.283Z,45.80
2023-04-20T12:20:56.060Z,45.55
2023-04-20T12:23:38.876Z,45.61
2023-04-20T12:26:27.021Z,45.27
2023-04-20T12:29:24.880Z,45.08
2023-04-20T12:32:42.314Z,45.02
2023-04-20T12:35:33.831Z,44.67
2023-04-20T12:38:30.379Z,44.68
2023-04-20T12:41:22.095Z,45.25
2023-04-20T12:44:17.622Z,45.56
2023-04-20T12:47:02.866Z,45.51
2023-04-20T12:50:31.084Z,45.13
2023-04-20T12:53:32.169Z,45.04
2023-04-20T12:56:20.039Z,44.88
2023-04-20T12:59:22.046Z,44.48
2023-04-20T13:02:07.141Z,44.20
2023-04-20T13:04:51.301Z,44.73
2023-04-20T13:07:29.007Z,45.08
2023-04-20T13:10:08.823Z,44.61
2023-04-20T13:13:02.221Z,44.14
2023-04-20T13:15:54.084Z,44.12
2023-04-20T13:22:57.531Z,44.13
2023-04-20T13:34:39.025Z,44.69
2023-04-20T13:52:53.453Z,44.73
2023-04-20T13:56:29.565Z,44.40
2023-04-20T14:21:24.731Z,44.54
2023-04-20T14:23:57.603Z,44.77
2023-04-20T14:26:30.447Z,45.07
2023-04-20T14:29:05.159Z,44.91
2023-04-20T14:31:43.503Z,44.70
2023-04-20T14:34:20.447Z,44.60
2023-04-20T14:36:53.785Z,44.52
2023-04-20T14:39:28.538Z,44.64
2023-04-20T14:41:58.735Z,44.77
2023-04-20T14:44:35.964Z,45.00
2023-04-20T14:47:06.228Z,45.32
2023-04-20T14:49:39.212Z,45.49
2023-04-20T14:52:17.793Z,45.57
2023-04-20T14:54:51.896Z,45.51
2023-04-20T14:57:38.898Z,45.67
2023-04-20T15:00:22.850Z,46.26
2023-04-20T15:03:01.735Z,46.66
2023-04-20T15:05:41.169Z,46.80
2023-04-20T15:09:07.265Z,47.07
2023-04-20T15:11:33.154Z,47.33
2023-04-20T15:14:19.753Z,47.41
2023-04-20T15:17:49.141Z,47.56
2023-04-20T15:20:56.709Z,48.13
2023-04-20T15:24:15.988Z,48.72
2023-04-20T15:26:57.831Z,49.09
2023-04-20T15:29:53.052Z,49.29
2023-04-20T15:32:46.897Z,49.54
2023-04-20T15:35:25.914Z,49.74
2023-04-20T15:38:08.328Z,49.77
2023-04-20T15:40:52.209Z,49.79
2023-04-20T15:43:27.117Z,49.94
2023-04-20T15:46:06.961Z,49.85
2023-04-20T15:49:04.241Z,49.60
2023-04-20T15:51:42.656Z,49.27
2023-04-20T15:54:31.906Z,49.18
2023-04-20T15:57:08.798Z,48.90
2023-04-20T16:00:44.251Z,48.88
2023-04-20T16:03:49.895Z,48.78
2023-04-20T16:06:56.236Z,48.91
2023-04-20T16:10:06.240Z,49.02
2023-04-20T16:12:56.651Z,49.03
2023-04-20T16:15:46.692Z,49.03
2023-04-20T16:18:27.332Z,49.14
2023-04-20T16:21:08.177Z,49.29
2023-04-20T16:23:57.791Z,49.35
2023-04-20T16:26:44.739Z,49.60
2023-04-20T16:29:20.846Z,49.86
2023-04-20T16:31:58.038Z,50.00
2023-04-20T16:34:28.157Z,50.46
2023-04-20T16:37:05.360Z,50.74
2023-04-20T16:39:39.636Z,51.06
2023-04-20T16:42:15.327Z,51.39
2023-04-20T16:45:00.179Z,51.79
2023-04-20T16:47:40.222Z,52.21
2023-04-20T16:50:20.880Z,52.72
2023-04-20T16:53:03.104Z,53.15
2023-04-20T16:55:46.735Z,53.48
2023-04-20T16:58:40.329Z,53.88
2023-04-20T17:01:23.623Z,54.14
2023-04-20T17:03:59.870Z,54.40
2023-04-20T17:06:49.552Z,54.56
2023-04-20T17:09:45.534Z,54.65
2023-04-20T17:12:34.084Z,55.01
2023-04-20T17:15:20.207Z,55.25
2023-04-20T17:18:22.048Z,55.62
2023-04-20T17:21:00.569Z,55.85
2023-04-20T17:23:52.162Z,56.13
2023-04-20T17:26:35.004Z,56.18
2023-04-20T17:29:08.986Z,56.37
2023-04-20T17:31:53.947Z,56.49
2023-04-20T17:34:44.091Z,56.59
2023-04-20T17:47:50.312Z,57.81
2023-04-20T17:50:56.875Z,58.07
2023-04-20T17:53:44.384Z,58.17
2023-04-20T17:56:20.996Z,58.22
2023-04-20T17:58:58.973Z,58.34
2023-04-20T18:01:47.087Z,58.41
2023-04-20T18:04:51.801Z,58.55
2023-04-20T18:07:36.952Z,58.66
2023-04-20T18:10:15.224Z,58.64
2023-04-20T18:13:18.371Z,58.77
2023-04-20T18:15:52.606Z,59.05
2023-04-20T18:18:28.028Z,59.26
2023-04-20T18:21:16.427Z,59.55
2023-04-20T18:23:55.988Z,60.02
2023-04-20T18:26:37.666Z,60.36
2023-04-20T18:29:44.280Z,60.68
2023-04-20T18:32:23.050Z,61.17
2023-04-20T18:35:03.658Z,61.46
2023-04-20T18:38:01.483Z,61.74
2023-04-20T18:40:40.056Z,62.02
2023-04-20T18:43:30.971Z,62.46
2023-04-20T18:46:38.105Z,62.59
2023-04-20T18:49:32.728Z,62.77
2023-04-20T18:55:51.585Z,63.03
2023-04-20T18:58:48.204Z,63.24
2023-04-20T19:01:29.117Z,63.35
2023-04-20T19:04:17.675Z,63.68
2023-04-20T19:06:59.430Z,63.66
2023-04-20T19:09:44.812Z,63.95
2023-04-20T19:12:47.940Z,64.02
2023-04-20T19:15:45.221Z,63.97
2023-04-20T19:18:26.280Z,64.10
2023-04-20T19:21:30.664Z,64.12
2023-04-20T19:24:14.767Z,64.03
2023-04-20T19:27:10.849Z,64.01
2023-04-20T19:29:51.809Z,63.98
2023-04-20T19:32:36.659Z,64.02
2023-04-20T19:35:10.347Z,63.94
2023-04-20T19:38:02.339Z,64.18
2023-04-20T19:40:51.047Z,64.15
2023-04-20T19:43:53.305Z,64.09
2023-04-20T19:46:50.696Z,64.04
2023-04-20T19:49:49.415Z,64.07
2023-04-20T19:52:36.906Z,64.14
2023-04-20T19:55:26.465Z,64.23
2023-04-20T19:58:16.546Z,64.18
2023-04-20T20:00:53.560Z,64.28
2023-04-20T20:03:40.098Z,64.34
2023-04-20T20:06:19.599Z,64.56
2023-04-20T20:09:09.468Z,64.70
2023-04-20T20:11:50.687Z,64.74
2023-04-20T20:14:32.449Z,64.82
2023-04-20T20:17:09.618Z,64.92
2023-04-20T20:20:02.104Z,65.08
2023-04-20T20:23:08.204Z,65.05
2023-04-20T20:25:56.908Z,65.15
2023-04-20T20:28:42.364Z,65.18
2023-04-20T20:31:27.755Z,65.22
2023-04-20T20:34:15.694Z,65.27
2023-04-20T20:37:15.091Z,65.36
2023-04-20T20:40:01.115Z,65.42
2023-04-20T20:45:45.141Z,65.36
2023-04-20T20:48:54.043Z,65.28
2023-04-20T20:52:05.863Z,65.38
2023-04-20T20:54:57.956Z,65.47
2023-04-20T20:57:46.549Z,65.38
2023-04-20T21:01:22.442Z,65.27
2023-04-20T21:04:08.227Z,65.34
2023-04-20T21:07:06.024Z,65.51
2023-04-20T21:13:19.372Z,65.33
2023-04-20T22:09:55.288Z,58.81
2023-04-20T22:18:19.000Z,59.67
2023-04-20T22:21:08.342Z,59.63
2023-04-20T22:24:04.618Z,59.49
2023-04-20T22:26:45.693Z,59.40
2023-04-20T22:29:38.890Z,59.29
2023-04-20T22:33:16.145Z,59.22
2023-04-20T22:38:30.199Z,58.98
2023-04-20T22:42:51.725Z,58.88
2023-04-20T22:46:29.987Z,58.50
2023-04-20T22:49:05.895Z,58.30
2023-04-20T22:52:49.056Z,58.12
2023-04-20T22:56:58.550Z,57.89
2023-04-20T23:04:46.935Z,56.97
2023-04-20T23:10:22.429Z,56.80
2023-04-20T23:13:17.152Z,56.73
2023-04-20T23:16:03.612Z,56.51
2023-04-20T23:18:36.165Z,56.32
2023-04-20T23:21:07.457Z,56.35
2023-04-20T23:23:40.408Z,56.16
2023-04-20T23:26:16.803Z,56.01
2023-04-20T23:28:56.311Z,56.00
2023-04-20T23:31:37.794Z,55.95
2023-04-20T23:34:16.019Z,55.85
2023-04-20T23:36:54.534Z,55.76
2023-04-20T23:39:28.841Z,55.66
2023-04-20T23:41:58.999Z,55.56
2023-04-20T23:44:36.849Z,55.45
2023-04-20T23:47:15.672Z,55.49
2023-04-20T23:49:50.942Z,55.47
2023-04-20T23:52:40.965Z,55.61
2023-04-20T23:55:24.528Z,55.66
2023-04-20T23:58:01.232Z,55.53
